createdAt,value
2018-12-24T00:01:06.614Z,4.55
2018-12-24T00:02:15.200Z,5.40
2018-12-24T00:03:24.400Z,4.65
2018-12-24T00:04:33.352Z,4.30
2018-12-24T00:05:43.276Z,5.15
2018-12-24T00:06:52.722Z,5.95
2018-12-24T00:08:01.471Z,5.55
2018-12-24T00:09:11.858Z,5.05
2018-12-24T00:10:21.623Z,4.85
2018-12-24T00:11:32.433Z,5.30
2018-12-24T00:12:39.220Z,5.37
2018-12-24T00:13:45.626Z,5.25
2018-12-24T00:14:53.556Z,5.40
2018-12-24T00:16:01.700Z,5.03
2018-12-24T00:17:09.654Z,4.65
2018-12-24T00:18:19.249Z,4.80
2018-12-24T00:19:25.829Z,4.97
2018-12-24T00:20:32.194Z,4.85
2018-12-24T00:21:38.529Z,4.50
2018-12-24T00:22:44.864Z,4.17
2018-12-24T00:23:52.788Z,3.83
2018-12-24T00:24:59.526Z,4.08
2018-12-24T00:26:06.770Z,3.92
2018-12-24T00:27:15.298Z,3.85
2018-12-24T00:28:24.057Z,4.45
2018-12-24T00:29:33.565Z,3.80
2018-12-24T00:30:42.540Z,3.98
2018-12-24T00:31:51.698Z,3.90
2018-12-24T00:33:00.198Z,3.77
2018-12-24T00:34:10.758Z,4.40
2018-12-24T00:35:19.403Z,3.90
2018-12-24T00:36:27.840Z,4.55
2018-12-24T00:37:36.222Z,4.60
2018-12-24T00:38:43.976Z,4.28
2018-12-24T00:39:52.030Z,4.58
2018-12-24T00:40:59.200Z,5.22
2018-12-24T00:42:15.613Z,5.08
2018-12-24T00:43:17.529Z,5.28
2018-12-24T00:44:28.449Z,5.60
2018-12-24T00:45:39.269Z,5.75
2018-12-24T00:46:48.375Z,5.72
2018-12-24T00:47:57.570Z,6.30
2018-12-24T00:49:07.585Z,6.20
2018-12-24T00:50:15.156Z,6.37
2018-12-24T00:51:24.616Z,5.92
2018-12-24T00:52:31.818Z,6.83
2018-12-24T00:53:40.936Z,7.65
2018-12-24T00:54:50.732Z,7.67
2018-12-24T00:55:57.273Z,7.15
2018-12-24T00:57:03.709Z,8.15
2018-12-24T00:58:15.791Z,7.92
2018-12-24T00:59:25.278Z,7.97
2018-12-24T01:00:32.696Z,8.58
2018-12-24T01:01:39.398Z,9.40
2018-12-24T01:02:45.864Z,8.90
2018-12-24T01:03:52.525Z,9.73
2018-12-24T01:04:59.034Z,9.78
2018-12-24T01:06:07.517Z,10.80
2018-12-24T01:07:16.085Z,9.88
2018-12-24T01:08:24.403Z,10.68
2018-12-24T01:09:31.761Z,10.93
2018-12-24T01:10:39.719Z,10.78
2018-12-24T01:11:46.490Z,11.08
2018-12-24T01:12:54.065Z,10.60
2018-12-24T01:14:01.152Z,10.10
2018-12-24T01:15:08.072Z,10.53
2018-12-24T01:16:15.470Z,11.22
2018-12-24T01:17:22.723Z,11.10
2018-12-24T01:18:29.263Z,10.78
2018-12-24T01:19:37.043Z,10.90
2018-12-24T01:20:43.768Z,11.33
2018-12-24T01:21:50.403Z,10.88
2018-12-24T01:22:57.431Z,11.33
2018-12-24T01:24:03.893Z,12.55
2018-12-24T01:25:10.422Z,12.43
2018-12-24T01:26:17.198Z,12.10
2018-12-24T01:27:23.668Z,11.95
2018-12-24T01:28:30.259Z,11.70
2018-12-24T01:29:36.710Z,11.65
2018-12-24T01:30:43.328Z,12.03
2018-12-24T01:31:49.815Z,12.07
2018-12-24T01:32:56.444Z,10.93
2018-12-24T01:34:03.139Z,12.03
2018-12-24T01:35:09.712Z,10.65
2018-12-24T01:36:16.280Z,9.38
2018-12-24T01:37:22.704Z,9.20
2018-12-24T01:38:28.972Z,9.20
2018-12-24T01:39:35.449Z,9.23
2018-12-24T01:40:43.001Z,9.08
2018-12-24T01:41:51.193Z,8.58
2018-12-24T01:43:04.026Z,8.48
2018-12-24T01:44:13.441Z,8.00
2018-12-24T01:45:20.611Z,7.75
2018-12-24T01:46:27.813Z,6.78
2018-12-24T01:47:36.420Z,7.47
2018-12-24T01:48:47.412Z,6.28
2018-12-24T01:49:56.023Z,7.87
2018-12-24T01:51:07.929Z,6.95
2018-12-24T01:52:16.167Z,6.42
2018-12-24T01:53:26.140Z,6.30
2018-12-24T01:54:33.727Z,6.35
2018-12-24T01:55:41.904Z,6.40
2018-12-24T01:56:49.794Z,6.17
2018-12-24T01:57:57.925Z,6.97
2018-12-24T01:59:05.969Z,7.55
2018-12-24T02:00:16.384Z,7.15
2018-12-24T02:01:22.770Z,6.70
2018-12-24T02:02:30.365Z,6.58
2018-12-24T02:03:36.820Z,6.60
2018-12-24T02:04:43.279Z,6.97
2018-12-24T02:05:51.845Z,7.08
2018-12-24T02:07:01.192Z,7.50
2018-12-24T02:08:07.526Z,6.97
2018-12-24T02:09:15.569Z,6.83
2018-12-24T02:10:22.196Z,7.40
2018-12-24T02:11:28.986Z,7.00
2018-12-24T02:12:42.254Z,7.62
2018-12-24T02:13:44.420Z,7.10
2018-12-24T02:14:50.918Z,7.40
2018-12-24T02:15:57.410Z,7.37
2018-12-24T02:17:03.967Z,7.55
2018-12-24T02:18:10.436Z,8.00
2018-12-24T02:19:16.981Z,7.85
2018-12-24T02:20:23.518Z,7.10
2018-12-24T02:21:29.989Z,7.83
2018-12-24T02:22:36.382Z,6.97
2018-12-24T02:23:42.927Z,7.22
2018-12-24T02:24:49.342Z,7.17
2018-12-24T02:25:55.923Z,7.90
2018-12-24T02:27:03.193Z,7.10
2018-12-24T02:28:12.480Z,7.20
2018-12-24T02:29:19.781Z,7.00
2018-12-24T02:30:27.883Z,7.35
2018-12-24T02:31:34.436Z,6.67
2018-12-24T02:32:41.217Z,7.20
2018-12-24T02:33:49.609Z,7.30
2018-12-24T02:34:56.113Z,7.75
2018-12-24T02:36:02.590Z,7.25
2018-12-24T02:37:09.041Z,7.40
2018-12-24T02:38:15.566Z,7.70
2018-12-24T02:39:22.055Z,7.90
2018-12-24T02:40:28.349Z,7.55
2018-12-24T02:41:34.940Z,8.08
2018-12-24T02:42:52.036Z,7.50
2018-12-24T02:43:51.423Z,8.28
2018-12-24T02:44:57.951Z,7.70
2018-12-24T02:46:04.521Z,8.03
2018-12-24T02:47:11.035Z,7.83
2018-12-24T02:48:17.638Z,7.85
2018-12-24T02:49:24.545Z,8.83
2018-12-24T02:50:31.292Z,8.78
2018-12-24T02:51:41.073Z,8.65
2018-12-24T02:52:50.175Z,8.20
2018-12-24T02:53:58.166Z,9.75
2018-12-24T02:55:04.838Z,8.28
2018-12-24T02:56:13.156Z,9.00
2018-12-24T02:57:21.746Z,8.75
2018-12-24T02:58:28.996Z,8.40
2018-12-24T02:59:35.771Z,8.38
2018-12-24T03:00:43.323Z,9.23
2018-12-24T03:01:51.982Z,9.00
2018-12-24T03:02:59.781Z,8.90
2018-12-24T03:04:07.521Z,8.88
2018-12-24T03:05:15.898Z,8.68
2018-12-24T03:06:24.790Z,8.63
2018-12-24T03:07:32.415Z,7.67
2018-12-24T03:08:40.520Z,7.17
2018-12-24T03:09:49.749Z,8.73
2018-12-24T03:10:57.753Z,7.40
2018-12-24T03:12:07.266Z,8.68
2018-12-24T03:13:13.830Z,7.85
2018-12-24T03:14:20.375Z,8.65
2018-12-24T03:15:27.000Z,8.35
2018-12-24T03:16:33.486Z,8.78
2018-12-24T03:17:39.987Z,8.33
2018-12-24T03:18:46.666Z,8.33
2018-12-24T03:19:53.153Z,8.35
2018-12-24T03:20:59.658Z,8.40
2018-12-24T03:22:06.371Z,7.80
2018-12-24T03:23:13.106Z,8.28
2018-12-24T03:24:20.011Z,8.23
2018-12-24T03:25:28.408Z,8.33
2018-12-24T03:26:36.300Z,8.55
2018-12-24T03:27:43.692Z,8.80
2018-12-24T03:28:52.036Z,8.98
2018-12-24T03:29:58.636Z,8.23
2018-12-24T03:31:07.334Z,8.33
2018-12-24T03:32:15.392Z,8.93
2018-12-24T03:33:23.516Z,8.48
2018-12-24T03:34:30.836Z,8.50
2018-12-24T03:35:37.502Z,8.30
2018-12-24T03:36:48.474Z,8.85
2018-12-24T03:37:55.247Z,8.73
2018-12-24T03:39:01.790Z,9.18
2018-12-24T03:40:08.718Z,8.98
2018-12-24T03:41:15.909Z,9.08
2018-12-24T03:42:24.366Z,8.83
2018-12-24T03:43:30.933Z,9.15
2018-12-24T03:44:37.429Z,9.53
2018-12-24T03:45:45.772Z,9.43
2018-12-24T03:46:54.583Z,9.83
2018-12-24T03:48:03.378Z,9.15
2018-12-24T03:49:11.577Z,9.70
2018-12-24T03:50:20.328Z,10.10
2018-12-24T03:51:27.206Z,9.28
2018-12-24T03:52:34.997Z,9.30
2018-12-24T03:53:43.202Z,8.90
2018-12-24T03:54:51.985Z,9.08
2018-12-24T03:55:58.872Z,9.05
2018-12-24T03:57:06.360Z,8.93
2018-12-24T03:58:13.355Z,8.68
2018-12-24T03:59:21.963Z,9.55
2018-12-24T04:00:29.084Z,8.85
2018-12-24T04:01:35.982Z,10.23
2018-12-24T04:02:43.060Z,10.63
2018-12-24T04:03:49.877Z,9.45
2018-12-24T04:04:56.539Z,8.63
2018-12-24T04:06:03.217Z,10.08
2018-12-24T04:07:09.956Z,9.05
2018-12-24T04:08:16.492Z,7.70
2018-12-24T04:09:25.519Z,8.75
2018-12-24T04:10:33.028Z,8.45
2018-12-24T04:11:42.338Z,7.92
2018-12-24T04:12:50.419Z,7.50
2018-12-24T04:13:57.186Z,7.70
2018-12-24T04:15:04.086Z,8.43
2018-12-24T04:16:10.751Z,8.35
2018-12-24T04:17:17.423Z,8.80
2018-12-24T04:18:23.967Z,8.35
2018-12-24T04:19:30.529Z,8.80
2018-12-24T04:20:37.761Z,8.78
2018-12-24T04:21:44.511Z,9.15
2018-12-24T04:22:51.431Z,9.45
2018-12-24T04:24:00.135Z,8.20
2018-12-24T04:25:09.270Z,8.38
2018-12-24T04:26:18.786Z,7.80
2018-12-24T04:27:27.644Z,8.53
2018-12-24T04:28:36.887Z,8.65
2018-12-24T04:29:45.716Z,8.50
2018-12-24T04:30:54.434Z,7.78
2018-12-24T04:32:03.682Z,7.90
2018-12-24T04:33:13.343Z,7.83
2018-12-24T04:34:22.731Z,7.67
2018-12-24T04:35:31.141Z,8.20
2018-12-24T04:36:40.879Z,7.60
2018-12-24T04:37:49.599Z,6.78
2018-12-24T04:38:57.321Z,7.17
2018-12-24T04:40:04.551Z,7.65
2018-12-24T04:41:13.613Z,7.60
2018-12-24T04:42:22.255Z,8.20
2018-12-24T04:43:32.393Z,8.03
2018-12-24T04:44:39.687Z,8.85
2018-12-24T04:45:49.198Z,7.47
2018-12-24T04:46:57.325Z,8.45
2018-12-24T04:48:05.359Z,9.18
2018-12-24T04:49:13.490Z,8.90
2018-12-24T04:50:22.468Z,8.28
2018-12-24T04:51:29.111Z,10.00
2018-12-24T04:52:35.827Z,9.30
2018-12-24T04:53:42.622Z,9.23
2018-12-24T04:54:53.924Z,8.48
2018-12-24T04:56:00.500Z,8.93
2018-12-24T04:57:07.996Z,8.48
2018-12-24T04:58:14.660Z,9.60
2018-12-24T04:59:25.454Z,8.40
2018-12-24T05:00:32.243Z,8.45
2018-12-24T05:01:38.813Z,7.97
2018-12-24T05:02:45.622Z,7.37
2018-12-24T05:03:52.742Z,8.48
2018-12-24T05:04:59.415Z,8.43
2018-12-24T05:06:06.248Z,8.25
2018-12-24T05:07:12.786Z,7.60
2018-12-24T05:08:19.287Z,7.10
2018-12-24T05:09:27.424Z,7.40
2018-12-24T05:10:33.880Z,7.45
2018-12-24T05:11:40.512Z,6.45
2018-12-24T05:12:48.601Z,6.83
2018-12-24T05:13:54.969Z,6.95
2018-12-24T05:15:01.365Z,7.25
2018-12-24T05:16:08.036Z,7.12
2018-12-24T05:17:14.765Z,7.58
2018-12-24T05:18:21.328Z,7.15
2018-12-24T05:19:28.013Z,6.83
2018-12-24T05:20:34.681Z,7.40
2018-12-24T05:21:41.441Z,7.08
2018-12-24T05:22:48.041Z,6.58
2018-12-24T05:23:54.737Z,6.75
2018-12-24T05:25:01.470Z,6.95
2018-12-24T05:26:08.404Z,6.95
2018-12-24T05:27:15.179Z,6.40
2018-12-24T05:28:21.954Z,6.17
2018-12-24T05:29:28.487Z,6.37
2018-12-24T05:30:35.127Z,6.60
2018-12-24T05:31:41.705Z,6.33
2018-12-24T05:32:48.348Z,6.95
2018-12-24T05:33:54.937Z,6.55
2018-12-24T05:35:01.422Z,6.80
2018-12-24T05:36:08.011Z,7.50
2018-12-24T05:37:14.957Z,7.00
2018-12-24T05:38:21.680Z,6.70
2018-12-24T05:39:28.929Z,7.10
2018-12-24T05:40:36.830Z,8.05
2018-12-24T05:41:43.855Z,7.05
2018-12-24T05:42:50.353Z,7.62
2018-12-24T05:43:56.962Z,7.92
2018-12-24T05:45:03.570Z,7.42
2018-12-24T05:46:09.940Z,8.25
2018-12-24T05:47:16.588Z,8.18
2018-12-24T05:48:23.298Z,9.08
2018-12-24T05:49:29.916Z,10.13
2018-12-24T05:50:36.593Z,9.50
2018-12-24T05:51:43.370Z,10.03
2018-12-24T05:52:50.334Z,10.72
2018-12-24T05:53:56.954Z,9.90
2018-12-24T05:55:03.415Z,11.25
2018-12-24T05:56:10.062Z,11.25
2018-12-24T05:57:16.737Z,10.65
2018-12-24T05:58:23.407Z,10.93
2018-12-24T05:59:29.936Z,11.00
2018-12-24T06:00:36.307Z,10.70
2018-12-24T06:01:42.822Z,10.43
2018-12-24T06:02:49.449Z,10.82
2018-12-24T06:03:57.749Z,8.80
2018-12-24T06:05:04.375Z,8.98
2018-12-24T06:06:10.909Z,8.73
2018-12-24T06:07:17.520Z,9.13
2018-12-24T06:08:24.180Z,9.48
2018-12-24T06:09:30.775Z,10.15
2018-12-24T06:10:37.410Z,9.48
2018-12-24T06:11:44.099Z,9.20
2018-12-24T06:12:50.731Z,9.63
2018-12-24T06:13:58.027Z,11.05
2018-12-24T06:15:05.834Z,10.48
2018-12-24T06:16:13.650Z,11.10
2018-12-24T06:17:21.824Z,10.90
2018-12-24T06:18:28.340Z,12.03
2018-12-24T06:19:36.008Z,10.98
2018-12-24T06:20:42.603Z,11.95
2018-12-24T06:21:50.429Z,12.10
2018-12-24T06:22:57.972Z,11.57
2018-12-24T06:24:04.468Z,11.20
2018-12-24T06:25:10.986Z,11.57
2018-12-24T06:26:17.443Z,12.30
2018-12-24T06:27:23.963Z,11.33
2018-12-24T06:28:30.405Z,11.60
2018-12-24T06:29:36.881Z,11.40
2018-12-24T06:30:43.314Z,11.50
2018-12-24T06:31:49.743Z,10.98
2018-12-24T06:32:56.231Z,11.38
2018-12-24T06:34:02.635Z,11.63
2018-12-24T06:35:09.235Z,11.88
2018-12-24T06:36:15.992Z,11.85
2018-12-24T06:37:22.879Z,11.73
2018-12-24T06:38:29.511Z,11.97
2018-12-24T06:39:36.159Z,12.25
2018-12-24T06:40:42.765Z,12.47
2018-12-24T06:41:49.577Z,12.82
2018-12-24T06:42:57.467Z,12.03
2018-12-24T06:44:06.797Z,13.45
2018-12-24T06:45:12.398Z,12.43
2018-12-24T06:46:19.093Z,11.53
2018-12-24T06:47:26.187Z,11.28
2018-12-24T06:48:32.772Z,13.03
2018-12-24T06:49:39.365Z,12.78
2018-12-24T06:50:46.069Z,11.95
2018-12-24T06:51:52.685Z,12.25
2018-12-24T06:52:59.117Z,12.55
2018-12-24T06:54:05.562Z,11.78
2018-12-24T06:55:12.119Z,12.47
2018-12-24T06:56:18.742Z,11.48
2018-12-24T06:57:25.388Z,12.43
2018-12-24T06:58:32.014Z,12.47
2018-12-24T06:59:38.911Z,12.37
2018-12-24T07:00:45.629Z,11.68
2018-12-24T07:01:52.554Z,13.00
2018-12-24T07:02:59.845Z,12.58
2018-12-24T07:04:06.336Z,12.98
2018-12-24T07:05:12.779Z,12.70
2018-12-24T07:06:20.193Z,12.45
2018-12-24T07:07:26.625Z,13.68
2018-12-24T07:08:33.353Z,12.78
2018-12-24T07:09:39.963Z,12.00
2018-12-24T07:10:46.533Z,13.40
2018-12-24T07:11:53.303Z,13.03
2018-12-24T07:12:59.673Z,13.38
2018-12-24T07:14:15.245Z,13.00
2018-12-24T07:15:15.722Z,12.53
2018-12-24T07:16:22.604Z,13.55
2018-12-24T07:17:29.436Z,13.28
2018-12-24T07:18:37.360Z,13.20
2018-12-24T07:19:44.822Z,13.68
2018-12-24T07:20:51.541Z,12.33
2018-12-24T07:21:59.437Z,12.78
2018-12-24T07:23:06.424Z,12.10
2018-12-24T07:24:13.320Z,12.33
2018-12-24T07:25:22.833Z,12.63
2018-12-24T07:26:29.441Z,12.68
2018-12-24T07:27:35.859Z,11.65
2018-12-24T07:28:42.659Z,12.60
2018-12-24T07:29:49.219Z,12.25
2018-12-24T07:30:56.194Z,11.63
2018-12-24T07:32:03.036Z,11.48
2018-12-24T07:33:16.259Z,11.60
2018-12-24T07:34:32.131Z,11.95
2018-12-24T07:35:32.912Z,13.38
2018-12-24T07:36:42.553Z,12.10
2018-12-24T07:37:51.341Z,12.53
2018-12-24T07:39:01.182Z,12.68
2018-12-24T07:40:10.135Z,12.93
2018-12-24T07:41:21.017Z,12.47
2018-12-24T07:42:29.609Z,13.28
2018-12-24T07:43:41.088Z,12.82
2018-12-24T07:44:49.673Z,12.33
2018-12-24T07:45:59.077Z,12.50
2018-12-24T07:47:08.372Z,11.35
2018-12-24T07:48:17.829Z,10.28
2018-12-24T07:49:27.583Z,10.30
2018-12-24T07:50:34.331Z,10.58
2018-12-24T07:51:42.255Z,9.78
2018-12-24T07:52:49.073Z,9.75
2018-12-24T07:53:55.660Z,8.95
2018-12-24T07:55:02.152Z,9.13
2018-12-24T07:56:11.644Z,9.15
2018-12-24T07:57:40.434Z,9.30
2018-12-24T07:58:50.282Z,7.90
2018-12-24T07:59:59.898Z,8.35
2018-12-24T08:01:09.329Z,8.25
2018-12-24T08:02:15.929Z,7.20
2018-12-24T08:03:22.465Z,6.72
2018-12-24T08:04:31.369Z,7.60
2018-12-24T08:05:37.810Z,6.92
2018-12-24T08:06:44.336Z,6.65
2018-12-24T08:07:50.704Z,7.17
2018-12-24T08:08:57.132Z,6.60
2018-12-24T08:10:03.668Z,6.58
2018-12-24T08:11:10.109Z,7.35
2018-12-24T08:12:16.578Z,7.40
2018-12-24T08:13:23.018Z,7.75
2018-12-24T08:14:33.231Z,6.45
2018-12-24T08:15:37.801Z,7.03
2018-12-24T08:16:44.550Z,7.50
2018-12-24T08:17:50.985Z,7.75
2018-12-24T08:18:57.498Z,6.97
2018-12-24T08:20:04.343Z,7.42
2018-12-24T08:21:11.115Z,7.67
2018-12-24T08:22:19.112Z,7.22
2018-12-24T08:23:28.070Z,7.05
2018-12-24T08:24:34.637Z,5.42
2018-12-24T08:25:42.830Z,5.42
2018-12-24T08:26:51.460Z,5.85
2018-12-24T08:27:59.749Z,5.30
2018-12-24T08:29:09.173Z,5.50
2018-12-24T08:30:21.365Z,5.22
2018-12-24T08:31:30.829Z,5.55
2018-12-24T08:32:39.938Z,4.78
2018-12-24T08:33:52.126Z,5.20
2018-12-24T08:35:03.357Z,5.05
2018-12-24T08:36:14.746Z,5.67
2018-12-24T08:37:24.022Z,5.78
2018-12-24T08:38:30.689Z,5.80
2018-12-24T08:39:37.809Z,6.35
2018-12-24T08:40:51.400Z,6.67
2018-12-24T08:41:58.329Z,7.75
2018-12-24T08:43:05.206Z,7.08
2018-12-24T08:44:13.358Z,6.67
2018-12-24T08:45:20.690Z,7.80
2018-12-24T08:46:27.688Z,8.05
2018-12-24T08:47:34.361Z,8.45
2018-12-24T08:48:42.746Z,8.53
2018-12-24T08:49:49.572Z,8.38
2018-12-24T08:50:56.632Z,8.53
2018-12-24T08:52:03.289Z,7.45
2018-12-24T08:53:10.310Z,8.18
2018-12-24T08:54:17.119Z,7.97
2018-12-24T08:55:23.975Z,9.45
2018-12-24T08:56:30.902Z,7.75
2018-12-24T08:57:37.522Z,8.60
2018-12-24T08:58:44.359Z,8.63
2018-12-24T08:59:50.953Z,8.13
2018-12-24T09:00:57.541Z,7.80
2018-12-24T09:02:10.350Z,8.35
2018-12-24T09:03:17.264Z,8.48
2018-12-24T09:04:24.417Z,8.03
2018-12-24T09:05:31.682Z,7.95
2018-12-24T09:06:38.836Z,8.20
2018-12-24T09:07:46.877Z,8.38
2018-12-24T09:08:54.276Z,7.97
2018-12-24T09:10:04.740Z,8.43
2018-12-24T09:11:11.479Z,8.18
2018-12-24T09:12:19.253Z,8.33
2018-12-24T09:13:25.917Z,8.30
2018-12-24T09:14:34.042Z,7.35
2018-12-24T09:15:41.055Z,6.72
2018-12-24T09:16:48.026Z,7.80
2018-12-24T09:17:54.525Z,7.40
2018-12-24T09:19:03.278Z,6.80
2018-12-24T09:20:10.480Z,7.03
2018-12-24T09:21:17.072Z,7.30
2018-12-24T09:22:23.693Z,6.42
2018-12-24T09:23:31.953Z,6.83
2018-12-24T09:24:38.969Z,7.08
2018-12-24T09:25:47.569Z,7.03
2018-12-24T09:26:58.835Z,6.75
2018-12-24T09:28:07.516Z,5.95
2018-12-24T09:29:19.466Z,5.45
2018-12-24T09:30:28.741Z,5.47
2018-12-24T09:31:37.302Z,4.85
2018-12-24T09:32:47.218Z,5.25
2018-12-24T09:33:55.906Z,4.30
2018-12-24T09:35:04.741Z,4.65
2018-12-24T09:36:13.381Z,4.92
2018-12-24T09:37:21.858Z,4.72
2018-12-24T09:38:29.788Z,4.70
2018-12-24T09:39:39.649Z,4.47
2018-12-24T09:40:49.461Z,3.83
2018-12-24T09:41:58.322Z,3.87
2018-12-24T09:43:06.852Z,4.22
2018-12-24T09:44:15.760Z,4.05
2018-12-24T09:45:25.612Z,4.00
2018-12-24T09:46:32.781Z,4.60
2018-12-24T09:47:39.918Z,4.35
2018-12-24T09:48:46.592Z,4.45
2018-12-24T09:49:53.195Z,5.10
2018-12-24T09:50:59.777Z,4.72
2018-12-24T09:52:06.766Z,4.70
2018-12-24T09:53:13.661Z,5.37
2018-12-24T09:54:20.244Z,5.28
2018-12-24T09:55:28.962Z,5.00
2018-12-24T09:56:37.129Z,4.78
2018-12-24T09:57:45.102Z,5.47
2018-12-24T09:58:52.325Z,5.25
2018-12-24T10:00:02.738Z,5.15
2018-12-24T10:01:13.527Z,5.50
2018-12-24T10:02:25.962Z,5.58
2018-12-24T10:03:42.056Z,4.58
2018-12-24T10:04:56.636Z,4.90
2018-12-24T10:06:20.033Z,5.22
2018-12-24T10:07:41.399Z,4.65
2018-12-24T10:08:49.885Z,5.08
2018-12-24T10:09:57.190Z,5.25
2018-12-24T10:11:04.913Z,5.40
2018-12-24T10:12:11.622Z,5.65
2018-12-24T10:13:18.313Z,5.30
2018-12-24T10:14:24.973Z,5.87
2018-12-24T10:15:33.460Z,6.05
2018-12-24T10:16:40.025Z,6.47
2018-12-24T10:17:46.544Z,6.97
2018-12-24T10:18:53.180Z,6.35
2018-12-24T10:19:59.982Z,6.80
2018-12-24T10:21:10.129Z,6.33
2018-12-24T10:22:16.756Z,6.72
2018-12-24T10:23:23.557Z,6.33
2018-12-24T10:24:30.108Z,5.50
2018-12-24T10:25:39.803Z,6.47
2018-12-24T10:26:52.534Z,7.03
2018-12-24T10:27:59.716Z,6.78
2018-12-24T10:29:08.396Z,6.00
2018-12-24T10:30:17.430Z,5.95
2018-12-24T10:31:26.123Z,5.58
2018-12-24T10:32:38.320Z,6.00
2018-12-24T10:33:46.996Z,6.28
2018-12-24T10:34:55.096Z,5.65
2018-12-24T10:36:09.432Z,5.78
2018-12-24T10:37:22.312Z,5.30
2018-12-24T10:38:33.022Z,5.60
2018-12-24T10:39:40.234Z,6.72
2018-12-24T10:40:58.934Z,6.42
2018-12-24T10:42:08.717Z,6.70
2018-12-24T10:43:15.624Z,6.60
2018-12-24T10:44:23.602Z,6.15
2018-12-24T10:45:30.303Z,6.30
2018-12-24T10:46:36.957Z,6.45
2018-12-24T10:47:43.629Z,6.20
2018-12-24T10:48:52.612Z,5.72
2018-12-24T10:49:59.581Z,6.30
2018-12-24T10:51:06.421Z,5.65
2018-12-24T10:52:15.115Z,6.42
2018-12-24T10:53:24.014Z,6.92
2018-12-24T10:54:30.660Z,6.62
2018-12-24T10:55:37.597Z,6.65
2018-12-24T10:56:47.572Z,5.58
2018-12-24T10:57:59.181Z,5.30
2018-12-24T10:59:09.006Z,5.67
2018-12-24T11:00:19.502Z,5.80
2018-12-24T11:01:29.171Z,5.45
2018-12-24T11:02:40.928Z,5.28
2018-12-24T11:03:53.598Z,5.05
2018-12-24T11:05:03.084Z,5.55
2018-12-24T11:06:11.748Z,6.05
2018-12-24T11:07:25.394Z,5.92
2018-12-24T11:08:36.851Z,5.85
2018-12-24T11:09:46.652Z,5.50
2018-12-24T11:10:56.137Z,5.17
2018-12-24T11:12:06.821Z,5.00
2018-12-24T11:13:16.459Z,5.87
2018-12-24T11:14:23.760Z,5.30
2018-12-24T11:15:30.467Z,4.85
2018-12-24T11:16:37.297Z,5.47
2018-12-24T11:17:44.392Z,5.40
2018-12-24T11:18:54.419Z,6.00
2018-12-24T11:20:03.110Z,6.05
2018-12-24T11:21:13.668Z,5.83
2018-12-24T11:22:20.351Z,5.90
2018-12-24T11:23:28.448Z,6.08
2018-12-24T11:24:35.289Z,5.97
2018-12-24T11:25:42.266Z,5.50
2018-12-24T11:26:48.912Z,6.00
2018-12-24T11:27:56.058Z,4.95
2018-12-24T11:29:05.064Z,5.67
2018-12-24T11:30:14.381Z,5.67
2018-12-24T11:31:22.710Z,5.60
2018-12-24T11:32:33.620Z,5.90
2018-12-24T11:33:45.479Z,6.05
2018-12-24T11:34:52.011Z,6.50
2018-12-24T11:35:58.949Z,6.12
2018-12-24T11:37:26.465Z,5.03
2018-12-24T11:38:33.435Z,5.87
2018-12-24T11:39:42.220Z,5.83
2018-12-24T11:40:50.252Z,6.10
2018-12-24T11:42:02.442Z,5.75
2018-12-24T11:43:11.280Z,5.97
2018-12-24T11:44:19.225Z,7.92
2018-12-24T11:45:33.610Z,7.60
2018-12-24T11:46:36.357Z,7.97
2018-12-24T11:47:44.851Z,7.35
2018-12-24T11:48:52.014Z,6.53
2018-12-24T11:50:00.310Z,6.78
2018-12-24T11:51:06.941Z,7.95
2018-12-24T11:52:13.726Z,7.65
2018-12-24T11:53:20.739Z,7.87
2018-12-24T11:54:28.306Z,9.53
2018-12-24T11:55:35.771Z,9.25
2018-12-24T11:56:42.902Z,8.08
2018-12-24T11:57:54.460Z,8.33
2018-12-24T11:59:08.035Z,8.53
2018-12-24T12:00:18.724Z,7.30
2018-12-24T12:01:27.456Z,7.83
2018-12-24T12:02:36.788Z,6.95
2018-12-24T12:03:46.203Z,7.30
2018-12-24T12:04:54.862Z,7.28
2018-12-24T12:06:04.915Z,7.08
2018-12-24T12:07:16.376Z,7.70
2018-12-24T12:08:26.899Z,8.58
2018-12-24T12:09:35.383Z,7.72
2018-12-24T12:10:44.843Z,7.92
2018-12-24T12:11:54.536Z,7.37
2018-12-24T12:13:06.532Z,7.78
2018-12-24T12:14:17.152Z,7.30
2018-12-24T12:15:26.480Z,6.60
2018-12-24T12:16:35.486Z,7.00
2018-12-24T12:17:42.484Z,7.03
2018-12-24T12:18:54.902Z,7.03
2018-12-24T12:20:03.293Z,6.78
2018-12-24T12:21:10.620Z,7.05
2018-12-24T12:22:21.554Z,7.20
2018-12-24T12:23:27.544Z,7.35
2018-12-24T12:24:36.325Z,7.65
2018-12-24T12:25:45.970Z,7.75
2018-12-24T12:26:52.788Z,7.47
2018-12-24T12:27:59.396Z,7.40
2018-12-24T12:29:09.935Z,6.75
2018-12-24T12:30:20.978Z,7.12
2018-12-24T12:31:28.635Z,6.05
2018-12-24T12:32:35.804Z,7.45
2018-12-24T12:33:42.755Z,7.10
2018-12-24T12:34:49.431Z,6.95
2018-12-24T12:35:55.927Z,7.87
2018-12-24T12:37:06.976Z,7.62
2018-12-24T12:38:15.917Z,8.03
2018-12-24T12:39:23.444Z,6.65
2018-12-24T12:40:33.027Z,8.38
2018-12-24T12:41:42.860Z,7.72
2018-12-24T12:42:51.664Z,8.30
2018-12-24T12:44:00.537Z,7.85
2018-12-24T12:45:09.976Z,7.12
2018-12-24T12:46:20.931Z,7.15
2018-12-24T12:47:30.816Z,7.33
2018-12-24T12:48:40.375Z,7.45
2018-12-24T12:49:47.301Z,7.92
2018-12-24T12:50:55.640Z,6.65
2018-12-24T12:52:02.256Z,6.97
2018-12-24T12:53:08.758Z,7.03
2018-12-24T12:54:15.204Z,7.25
2018-12-24T12:55:21.780Z,7.50
2018-12-24T12:56:28.608Z,7.83
2018-12-24T12:57:36.382Z,7.20
2018-12-24T12:58:44.976Z,7.17
2018-12-24T12:59:55.693Z,6.53
2018-12-24T13:01:06.112Z,6.40
2018-12-24T13:02:14.590Z,6.78
2018-12-24T13:03:23.734Z,7.75
2018-12-24T13:04:35.186Z,7.70
2018-12-24T13:05:46.432Z,7.42
2018-12-24T13:06:56.396Z,7.12
2018-12-24T13:08:06.401Z,6.65
2018-12-24T13:09:16.651Z,7.10
2018-12-24T13:10:26.706Z,6.50
2018-12-24T13:11:38.108Z,6.53
2018-12-24T13:12:47.620Z,6.35
2018-12-24T13:13:58.476Z,6.40
2018-12-24T13:15:05.289Z,6.47
2018-12-24T13:16:12.042Z,7.97
2018-12-24T13:17:18.676Z,7.03
2018-12-24T13:18:30.044Z,6.72
2018-12-24T13:19:42.112Z,7.08
2018-12-24T13:20:52.946Z,7.42
2018-12-24T13:22:04.386Z,6.53
2018-12-24T13:23:11.894Z,7.05
2018-12-24T13:24:29.419Z,7.60
2018-12-24T13:25:39.166Z,5.72
2018-12-24T13:26:47.879Z,5.95
2018-12-24T13:27:55.664Z,5.83
2018-12-24T13:29:03.283Z,6.17
2018-12-24T13:30:11.175Z,6.90
2018-12-24T13:31:19.904Z,4.70
2018-12-24T13:32:28.643Z,6.00
2018-12-24T13:33:37.915Z,6.12
2018-12-24T13:34:46.397Z,5.10
2018-12-24T13:35:56.159Z,5.67
2018-12-24T13:37:04.808Z,5.80
2018-12-24T13:38:15.180Z,6.35
2018-12-24T13:39:23.643Z,6.53
2018-12-24T13:40:33.657Z,6.47
2018-12-24T13:41:55.318Z,7.03
2018-12-24T13:43:09.915Z,6.00
2018-12-24T13:44:16.677Z,7.00
2018-12-24T13:45:23.510Z,7.15
2018-12-24T13:46:30.115Z,6.55
2018-12-24T13:47:36.848Z,7.22
2018-12-24T13:48:43.540Z,6.40
2018-12-24T13:49:51.945Z,7.62
2018-12-24T13:50:58.376Z,7.72
2018-12-24T13:52:07.570Z,7.58
2018-12-24T13:53:14.462Z,7.22
2018-12-24T13:54:23.557Z,8.38
2018-12-24T13:55:30.242Z,7.55
2018-12-24T13:56:36.923Z,8.23
2018-12-24T13:57:43.582Z,9.30
2018-12-24T13:58:50.061Z,9.15
2018-12-24T13:59:56.761Z,7.75
2018-12-24T14:01:03.621Z,7.92
2018-12-24T14:02:10.251Z,7.87
2018-12-24T14:03:16.846Z,7.78
2018-12-24T14:04:23.752Z,8.43
2018-12-24T14:05:36.184Z,7.17
2018-12-24T14:06:42.709Z,6.85
2018-12-24T14:07:49.330Z,6.92
2018-12-24T14:08:55.961Z,7.35
2018-12-24T14:10:04.074Z,7.60
2018-12-24T14:11:10.919Z,8.53
2018-12-24T14:12:18.160Z,7.75
2018-12-24T14:13:27.882Z,8.33
2018-12-24T14:14:36.254Z,9.08
2018-12-24T14:15:43.057Z,9.13
2018-12-24T14:16:50.795Z,9.40
2018-12-24T14:17:57.555Z,10.32
2018-12-24T14:19:08.760Z,9.78
2018-12-24T14:20:17.955Z,9.95
2018-12-24T14:21:27.220Z,10.48
2018-12-24T14:22:34.080Z,10.80
2018-12-24T14:23:43.620Z,10.15
2018-12-24T14:24:51.759Z,11.12
2018-12-24T14:25:59.295Z,9.30
2018-12-24T14:27:06.434Z,9.00
2018-12-24T14:28:14.245Z,7.70
2018-12-24T14:29:21.051Z,8.43
2018-12-24T14:30:30.605Z,8.35
2018-12-24T14:31:38.469Z,8.73
2018-12-24T14:32:46.495Z,8.80
2018-12-24T14:33:53.098Z,9.43
2018-12-24T14:34:59.916Z,9.43
2018-12-24T14:36:11.244Z,8.98
2018-12-24T14:37:20.608Z,8.23
2018-12-24T14:38:27.359Z,9.40
2018-12-24T14:39:34.373Z,8.33
2018-12-24T14:40:41.075Z,7.78
2018-12-24T14:41:48.906Z,8.55
2018-12-24T14:42:58.394Z,8.05
2018-12-24T14:44:04.972Z,7.37
2018-12-24T14:45:11.733Z,7.97
2018-12-24T14:46:25.599Z,8.33
2018-12-24T14:47:28.375Z,8.48
2018-12-24T14:48:34.959Z,8.33
2018-12-24T14:49:43.047Z,9.28
2018-12-24T14:50:53.382Z,8.53
2018-12-24T14:52:00.030Z,8.18
2018-12-24T14:53:06.740Z,7.03
2018-12-24T14:54:15.503Z,6.67
2018-12-24T14:55:24.170Z,6.12
2018-12-24T14:56:31.085Z,5.95
2018-12-24T14:57:37.796Z,6.30
2018-12-24T14:58:46.838Z,6.55
2018-12-24T14:59:55.996Z,6.72
2018-12-24T15:01:02.773Z,6.60